Time;durP1;ratioP1;P1;durP2;ratioP2;P2;SDS_P1;SDS_P2;PMS_P1;PMS_P2;Temp;Humidity;BMP_temperature;BMP_pressure;BME280_temperature;BME280_humidity;BME280_pressure;Samples;Min_cycle;Max_cycle;Signal;HPM_P1;HPM_P2
2022/07/14 00:02:00;;;;;;;2.92;2.53;;;;;;;23.36;71.53;96690.53;5028392;28;20219;-79
2022/07/14 00:04:27;;;;;;;2.28;2.08;;;;;;;23.42;70.58;96702.28;5026515;28;20234;-79
2022/07/14 00:06:55;;;;;;;2.63;2.30;;;;;;;23.53;70.49;96701.81;5050124;28;20330;-79
2022/07/14 00:09:22;;;;;;;4.10;2.22;;;;;;;23.55;72.71;96699.59;5018358;28;20249;-79
2022/07/14 00:11:49;;;;;;;2.38;2.17;;;;;;;23.40;75.63;96700.63;5017701;28;20234;-79
2022/07/14 00:14:17;;;;;;;2.20;2.00;;;;;;;23.33;74.71;96694.72;5023728;28;20235;-79
2022/07/14 00:16:44;;;;;;;2.22;2.03;;;;;;;23.26;75.09;96691.53;5052054;28;20214;-79
2022/07/14 00:19:12;;;;;;;2.75;2.17;;;;;;;23.30;73.83;96694.50;5023840;28;20211;-79
2022/07/14 00:21:39;;;;;;;2.78;2.33;;;;;;;23.32;72.96;96701.34;5008624;28;20220;-79
2022/07/14 00:24:09;;;;;;;2.38;2.17;;;;;;;23.38;73.20;96697.38;5024240;28;20231;-79
2022/07/14 00:26:37;;;;;;;2.33;2.13;;;;;;;23.38;73.49;96697.38;4976314;28;1200801;-79
2022/07/14 00:29:04;;;;;;;4.13;2.08;;;;;;;23.45;74.69;96697.00;5050035;28;20230;-79
2022/07/14 00:31:31;;;;;;;2.40;2.20;;;;;;;23.47;74.43;96699.44;5027824;28;20218;-79
2022/07/14 00:33:59;;;;;;;2.83;2.25;;;;;;;23.47;75.56;96696.69;5020995;28;20262;-79
2022/07/14 00:36:26;;;;;;;2.65;2.20;;;;;;;23.50;75.55;96701.59;5028596;28;20200;-79
2022/07/14 00:38:53;;;;;;;2.85;2.20;;;;;;;23.43;76.16;96693.72;5022202;28;20268;-79
2022/07/14 00:41:22;;;;;;;3.80;2.47;;;;;;;23.40;75.44;96694.31;5027707;28;20219;-79
2022/07/14 00:43:49;;;;;;;2.58;2.10;;;;;;;23.27;74.04;96684.91;5028574;28;20302;-79
2022/07/14 00:46:16;;;;;;;4.28;2.30;;;;;;;23.18;72.85;96686.72;5058095;28;20246;-79
2022/07/14 00:48:43;;;;;;;2.72;2.53;;;;;;;23.06;73.30;96666.28;5034821;28;20234;-79
2022/07/14 00:51:11;;;;;;;2.63;2.15;;;;;;;22.97;74.10;96677.16;5035341;28;20213;-79
2022/07/14 00:53:38;;;;;;;2.25;2.05;;;;;;;22.92;74.55;96669.00;5011285;28;20294;-79
2022/07/14 00:56:06;;;;;;;3.50;2.20;;;;;;;22.87;74.80;96669.09;5037947;28;20231;-79
2022/07/14 00:58:34;;;;;;;2.40;2.20;;;;;;;22.89;74.52;96658.56;5057301;28;20207;-79
2022/07/14 01:01:02;;;;;;;2.80;2.50;;;;;;;22.88;74.76;96654.22;5042394;28;20602;-79
2022/07/14 01:03:29;;;;;;;2.47;2.28;;;;;;;22.84;75.81;96647.66;5024789;28;20198;-79
2022/07/14 01:05:57;;;;;;;2.53;2.33;;;;;;;22.82;76.61;96638.88;5023344;28;20207;-79
2022/07/14 01:08:24;;;;;;;5.68;2.38;;;;;;;22.65;77.39;96640.22;5019056;28;20310;-79
2022/07/14 01:10:51;;;;;;;2.50;2.30;;;;;;;22.60;77.39;96634.00;5048515;28;20272;-79
2022/07/14 01:13:18;;;;;;;2.60;2.38;;;;;;;22.65;76.96;96631.97;5025501;28;20214;-79
2022/07/14 01:15:47;;;;;;;3.10;2.40;;;;;;;22.63;76.76;96630.63;5040508;28;20230;-79
2022/07/14 01:18:14;;;;;;;3.05;2.10;;;;;;;22.69;76.12;96623.13;5020789;28;20260;-79
2022/07/14 01:20:42;;;;;;;2.10;1.90;;;;;;;22.76;74.49;96621.63;5022876;28;20215;-78
2022/07/14 01:23:12;;;;;;;2.50;2.30;;;;;;;22.74;74.28;96617.50;5050629;28;20206;-79
2022/07/14 01:25:39;;;;;;;3.75;2.38;;;;;;;22.74;74.19;96614.75;5049791;28;20203;-79
2022/07/14 01:28:06;;;;;;;2.65;2.45;;;;;;;22.86;73.27;96607.69;5018537;28;20239;-79
2022/07/14 01:30:34;;;;;;;3.05;2.38;;;;;;;22.96;72.32;96607.53;5059328;28;20210;-79
2022/07/14 01:33:01;;;;;;;2.67;2.35;;;;;;;22.99;71.68;96598.63;5021559;28;20210;-79
2022/07/14 01:35:28;;;;;;;3.72;2.38;;;;;;;23.01;72.07;96604.66;5021440;28;20207;-79
2022/07/14 01:37:56;;;;;;;2.63;2.40;;;;;;;23.07;72.11;96608.13;5020152;28;20274;-79
2022/07/14 01:40:25;;;;;;;5.68;2.30;;;;;;;23.06;70.77;96600.16;5037542;28;20214;-79
2022/07/14 01:42:52;;;;;;;2.80;2.30;;;;;;;23.03;69.92;96607.13;5058751;28;20298;-79
2022/07/14 01:45:20;;;;;;;3.25;2.13;;;;;;;23.12;68.96;96602.56;5059490;28;20218;-79
2022/07/14 01:47:47;;;;;;;3.15;2.20;;;;;;;23.21;67.82;96600.72;5024897;28;20232;-79
2022/07/14 01:50:14;;;;;;;2.92;2.20;;;;;;;23.24;67.88;96594.59;5024274;28;20275;-79
2022/07/14 01:52:44;;;;;;;2.53;2.20;;;;;;;23.26;68.62;96606.13;5059730;28;20226;-79
2022/07/14 01:55:11;;;;;;;2.35;2.15;;;;;;;23.28;69.80;96600.31;5014693;28;20211;-79
2022/07/14 01:57:39;;;;;;;2.95;2.58;;;;;;;23.28;69.33;96598.38;5023275;28;20317;-79
2022/07/14 02:00:08;;;;;;;2.20;2.00;;;;;;;23.27;70.27;96601.44;5023665;28;20207;-79
2022/07/14 02:02:44;;;;;;;2.40;2.20;;;;;;;23.18;70.38;96593.06;5014614;28;20217;-79
2022/07/14 02:05:12;;;;;;;2.60;2.33;;;;;;;23.16;70.20;96591.72;5024047;28;20215;-79
2022/07/14 02:07:40;;;;;;;2.88;2.40;;;;;;;23.15;69.17;96585.38;5012040;28;20291;-79
2022/07/14 02:13:03;;;;;;;2.78;2.53;;;;;;;23.11;69.33;96584.38;5030955;28;20203;-79
2022/07/14 02:15:30;;;;;;;3.33;2.13;;;;;;;23.13;70.30;96586.84;5054494;28;20274;-79
2022/07/14 02:17:58;;;;;;;2.47;1.95;;;;;;;22.97;71.78;96581.59;5049186;28;20250;-79
2022/07/14 02:20:25;;;;;;;2.40;2.20;;;;;;;22.87;71.23;96578.25;5048102;28;20203;-79
2022/07/14 02:22:52;;;;;;;2.33;2.10;;;;;;;22.88;70.46;96580.66;5037034;28;20306;-79
2022/07/14 02:25:20;;;;;;;4.47;2.10;;;;;;;22.93;70.25;96574.25;5010886;28;20210;-79
2022/07/14 02:27:47;;;;;;;2.42;2.22;;;;;;;22.94;69.85;96576.72;5026890;28;20234;-79
2022/07/14 02:30:15;;;;;;;2.38;2.17;;;;;;;22.97;69.26;96576.09;5020937;28;20240;-79
2022/07/14 02:32:43;;;;;;;2.20;2.00;;;;;;;22.99;68.98;96581.28;5030170;28;20309;-79
2022/07/14 02:35:10;;;;;;;3.75;2.45;;;;;;;22.99;69.56;96581.28;5044374;28;20207;-79
2022/07/14 02:37:37;;;;;;;3.33;2.17;;;;;;;23.02;69.31;96584.28;5036177;28;20207;-79
2022/07/14 02:40:07;;;;;;;4.43;2.30;;;;;;;23.07;69.66;96579.78;5022256;28;20261;-79
2022/07/14 02:42:34;;;;;;;2.60;2.40;;;;;;;23.08;69.01;96571.22;5010484;28;20207;-79
2022/07/14 02:45:01;;;;;;;3.30;2.22;;;;;;;23.09;68.08;96575.59;5045180;28;20257;-78
2022/07/14 02:47:30;;;;;;;2.33;2.13;;;;;;;23.13;67.51;96582.16;5015628;28;20206;-79
2022/07/14 02:49:57;;;;;;;2.80;2.08;;;;;;;23.13;67.28;96568.38;5056064;28;20202;-79
2022/07/14 02:52:24;;;;;;;2.95;2.35;;;;;;;23.15;67.60;96570.81;5009387;28;20195;-78
2022/07/14 02:54:54;;;;;;;2.40;2.20;;;;;;;23.05;68.12;96569.09;5043492;28;20203;-79
2022/07/14 02:57:24;;;;;;;3.50;2.22;;;;;;;23.06;68.31;96567.94;5021033;28;20223;-79
2022/07/14 02:59:53;;;;;;;3.60;1.90;;;;;;;23.05;68.53;96563.56;5012266;28;20338;-79
2022/07/14 03:02:20;;;;;;;3.35;2.08;;;;;;;22.97;68.95;96556.00;5043533;28;20211;-79
2022/07/14 03:04:49;;;;;;;3.70;2.05;;;;;;;22.96;68.62;96557.13;5023697;28;20295;-79
2022/07/14 03:07:16;;;;;;;3.33;2.15;;;;;;;22.95;68.59;96550.00;5056995;28;20244;-79
2022/07/14 03:09:43;;;;;;;2.22;2.03;;;;;;;22.94;69.17;96551.13;5010658;28;20230;-79
2022/07/14 03:12:10;;;;;;;2.85;2.22;;;;;;;23.02;68.44;96562.25;5042685;28;20265;-78
2022/07/14 03:14:42;;;;;;;4.38;2.22;;;;;;;23.02;68.18;96562.25;5036906;28;20207;-78
2022/07/14 03:17:09;;;;;;;3.08;2.13;;;;;;;23.04;67.89;96564.69;5051248;28;20195;-79
2022/07/14 03:19:36;;;;;;;2.25;2.05;;;;;;;23.04;67.99;96559.19;5021409;28;20312;-79
2022/07/14 03:22:04;;;;;;;2.45;2.03;;;;;;;23.07;68.60;96568.75;5025514;28;20202;-79
2022/07/14 03:24:33;;;;;;;4.20;2.40;;;;;;;23.04;69.46;96564.69;5025762;28;20203;-79
2022/07/14 03:27:02;;;;;;;3.28;2.45;;;;;;;23.02;70.65;96578.75;5025823;28;20235;-79
2022/07/14 03:29:30;;;;;;;4.45;2.47;;;;;;;22.95;71.47;96569.28;5021518;28;20224;-79
2022/07/14 03:31:57;;;;;;;3.08;2.28;;;;;;;22.86;72.67;96574.66;5019793;28;20199;-79
2022/07/14 03:34:24;;;;;;;2.70;2.50;;;;;;;22.84;73.18;96584.34;5042284;28;20206;-79
2022/07/14 03:36:53;;;;;;;3.75;2.50;;;;;;;22.82;72.89;96589.31;5052929;28;20198;-79
2022/07/14 03:39:27;;;;;;;6.07;3.60;;;;;;;22.77;73.16;96592.19;5024463;28;20200;-79
2022/07/14 03:41:54;;;;;;;7.05;3.50;;;;;;;22.78;74.38;96597.38;5046633;28;20222;-79
2022/07/14 03:44:22;;;;;;;3.95;2.97;;;;;;;22.73;75.32;96589.16;5055473;28;20209;-79
2022/07/14 03:46:49;;;;;;;3.38;2.90;;;;;;;22.63;76.05;96597.59;5035275;28;20238;-79
2022/07/14 03:49:19;;;;;;;7.43;4.22;;;;;;;22.47;77.77;96596.22;5032244;28;20219;-79
2022/07/14 03:51:48;;;;;;;3.72;3.05;;;;;;;22.39;77.38;96583.13;5040885;28;20215;-79
2022/07/14 03:54:20;;;;;;;4.22;3.00;;;;;;;22.42;79.17;96586.13;5037526;28;20210;-79
2022/07/14 03:56:48;;;;;;;3.20;2.88;;;;;;;22.41;78.14;96598.25;5019451;28;20318;-79
2022/07/14 03:59:18;;;;;;;5.88;2.50;;;;;;;22.41;78.32;96598.25;5031268;28;20213;-79
2022/07/14 04:01:46;;;;;;;2.67;2.47;;;;;;;22.32;78.10;96594.53;5013904;28;20231;-79
2022/07/14 04:04:13;;;;;;;5.25;2.30;;;;;;;22.31;79.04;96590.13;5026495;28;20241;-79
2022/07/14 04:06:41;;;;;;;3.28;2.50;;;;;;;22.37;77.77;96594.44;5029681;28;20215;-79
2022/07/14 04:09:08;;;;;;;2.80;2.60;;;;;;;22.43;77.59;96600.69;5055361;28;20223;-79
2022/07/14 04:11:40;;;;;;;3.45;2.72;;;;;;;22.52;77.24;96613.47;5021406;28;20257;-79
2022/07/14 04:14:09;;;;;;;5.63;2.90;;;;;;;22.49;77.07;96614.06;5026289;28;20206;-79
2022/07/14 04:16:40;;;;;;;5.20;3.30;;;;;;;22.52;77.08;96621.72;5021967;28;20205;-79
2022/07/14 04:19:08;;;;;;;4.05;3.25;;;;;;;22.54;77.71;96616.72;5047690;28;20230;-79
2022/07/14 04:21:36;;;;;;;4.97;3.72;;;;;;;22.53;77.86;96612.38;5015948;28;20218;-79
2022/07/14 04:24:04;;;;;;;3.97;3.15;;;;;;;22.54;76.80;96618.69;5017549;28;20215;-80
2022/07/14 04:26:31;;;;;;;3.65;3.00;;;;;;;22.57;76.89;96624.38;5016969;28;20214;-80
2022/07/14 04:28:58;;;;;;;3.72;3.25;;;;;;;22.53;77.68;96606.03;5032231;28;20230;-80
2022/07/14 04:31:29;;;;;;;4.97;3.20;;;;;;;22.50;78.04;96615.72;5025812;28;20199;-80
2022/07/14 04:33:56;;;;;;;6.20;3.25;;;;;;;22.49;78.31;96614.06;5035148;28;20237;-80
2022/07/14 04:36:24;;;;;;;3.35;2.60;;;;;;;22.47;77.91;96609.97;5021441;28;20191;-80
2022/07/14 04:38:51;;;;;;;6.03;2.88;;;;;;;22.54;77.71;96615.94;5026462;28;20212;-80
2022/07/14 04:41:19;;;;;;;3.28;2.97;;;;;;;22.53;77.09;96623.38;5034240;28;20249;-80
2022/07/14 04:43:46;;;;;;;3.17;2.80;;;;;;;22.46;76.76;96628.41;5057207;28;20218;-80
2022/07/14 04:46:14;;;;;;;3.60;2.83;;;;;;;22.48;76.89;96634.44;5026657;28;20206;-80
2022/07/14 04:54:27;;;;;;;4.00;2.60;;;;;;;22.41;78.78;96627.69;5024002;28;20223;-80
2022/07/14 04:57:13;;;;;;;3.47;2.65;;;;;;;22.46;78.21;96631.16;5015423;28;20254;-80
2022/07/14 04:59:44;;;;;;;2.97;2.55;;;;;;;22.49;78.07;96629.75;5015488;28;20227;-80
2022/07/14 05:02:13;;;;;;;5.28;3.13;;;;;;;22.46;78.03;96625.66;5027042;28;20298;-80
2022/07/14 05:04:41;;;;;;;3.88;2.90;;;;;;;22.48;78.16;96634.44;5029273;28;20211;-80
2022/07/14 05:07:09;;;;;;;3.10;2.88;;;;;;;22.50;81.67;96639.66;5017041;28;20247;-80
2022/07/14 05:09:40;;;;;;;2.80;2.60;;;;;;;22.51;83.83;96639.34;5011274;28;20223;-80
2022/07/14 05:12:13;;;;;;;3.17;2.88;;;;;;;22.51;82.63;96633.03;5020510;28;20203;-80
2022/07/14 05:14:41;;;;;;;4.18;2.17;;;;;;;22.50;82.24;96632.22;5025165;28;20198;-80
2022/07/14 05:17:08;;;;;;;2.65;2.45;;;;;;;22.47;82.04;96629.22;5017968;28;20229;-80
2022/07/14 05:19:35;;;;;;;2.95;2.50;;;;;;;22.52;81.27;96641.00;5025918;28;20218;-80
2022/07/14 05:22:04;;;;;;;8.77;2.97;;;;;;;22.45;81.95;96643.31;5046526;28;20196;-80
2022/07/14 05:24:32;;;;;;;2.75;2.55;;;;;;;22.43;81.78;96640.03;5025549;28;20195;-80
2022/07/14 05:26:59;;;;;;;3.20;2.90;;;;;;;22.45;81.56;96643.31;5020704;28;20250;-80
2022/07/14 05:29:27;;;;;;;6.20;3.03;;;;;;;22.34;82.79;96646.50;5032298;28;20321;-80
2022/07/14 05:31:54;;;;;;;3.00;2.40;;;;;;;22.26;83.84;96650.75;5055697;28;20203;-80
2022/07/14 05:34:21;;;;;;;6.43;2.47;;;;;;;22.35;83.55;96643.47;5023882;28;20203;-79
2022/07/14 05:36:49;;;;;;;4.60;2.53;;;;;;;22.36;84.04;96642.34;5038413;28;20203;-79
2022/07/14 05:39:17;;;;;;;6.90;2.67;;;;;;;22.38;83.19;96629.09;5025189;28;20245;-79
2022/07/14 05:41:44;;;;;;;3.35;2.72;;;;;;;22.26;84.24;96618.56;5024405;28;20207;-79
2022/07/14 05:44:12;;;;;;;3.38;3.08;;;;;;;22.23;83.41;96618.31;5041103;28;20207;-79
2022/07/14 05:46:40;;;;;;;4.20;3.00;;;;;;;22.26;82.89;96615.81;5041785;28;20203;-79
2022/07/14 05:49:07;;;;;;;6.68;2.67;;;;;;;22.33;86.79;96625.63;5042293;28;20257;-79
2022/07/14 05:51:34;;;;;;;4.05;2.50;;;;;;;22.31;85.97;96606.66;5039601;28;20206;-79
2022/07/14 05:54:01;;;;;;;2.83;2.53;;;;;;;22.38;83.16;96618.09;5019874;28;20202;-80
2022/07/14 05:56:30;;;;;;;4.38;2.78;;;;;;;22.38;83.46;96615.34;5038020;28;20230;-79
2022/07/14 05:58:57;;;;;;;6.72;3.08;;;;;;;22.43;84.08;96614.47;5025091;28;20209;-79
2022/07/14 06:01:24;;;;;;;4.60;2.60;;;;;;;22.43;84.88;96609.78;5020878;28;20218;-80
2022/07/14 06:03:56;;;;;;;6.15;2.67;;;;;;;22.49;84.74;96613.25;5055836;28;20286;-79
2022/07/14 06:06:24;;;;;;;6.22;2.80;;;;;;;22.47;85.11;96591.53;5034180;28;20203;-79
2022/07/14 06:08:53;;;;;;;2.65;2.40;;;;;;;22.48;85.30;96593.16;5034684;28;20243;-80
2022/07/14 06:11:21;;;;;;;2.92;2.63;;;;;;;22.57;83.44;96588.63;5016743;28;20263;-79
2022/07/14 06:13:50;;;;;;;2.95;2.38;;;;;;;22.54;83.78;96578.19;5027335;28;20215;-80
2022/07/14 06:16:18;;;;;;;6.78;2.42;;;;;;;22.47;82.61;96572.25;5018512;28;20203;-80
2022/07/14 06:18:45;;;;;;;4.28;2.42;;;;;;;22.48;81.77;96570.34;5012577;28;20204;-80
2022/07/14 06:21:13;;;;;;;4.22;2.60;;;;;;;22.52;80.87;96569.44;5027255;28;20202;-80
2022/07/14 06:23:40;;;;;;;3.33;2.50;;;;;;;22.65;79.00;96576.09;5019789;28;20203;-80
2022/07/14 06:26:11;;;;;;;5.22;3.70;;;;;;;22.72;80.25;96578.44;5020391;28;20227;-79
2022/07/14 06:28:42;;;;;;;6.93;3.65;;;;;;;22.66;80.65;96561.22;5016933;28;20234;-80
2022/07/14 06:31:11;;;;;;;3.60;3.05;;;;;;;22.69;80.51;96563.38;5053953;28;20211;-79
2022/07/14 06:33:38;;;;;;;4.32;2.78;;;;;;;22.76;79.51;96555.56;5024137;28;20211;-80
2022/07/14 06:36:21;;;;;;;3.88;2.55;;;;;;;22.81;79.00;96549.13;5023490;28;20277;-80
2022/07/14 06:38:48;;;;;;;6.05;3.47;;;;;;;22.86;78.15;96544.38;5018596;28;20221;-80
2022/07/14 06:41:16;;;;;;;3.45;2.42;;;;;;;23.07;74.56;96547.53;5055711;28;20257;-80
2022/07/14 06:43:45;;;;;;;4.90;2.60;;;;;;;23.27;73.95;96540.81;5024741;28;20207;-80
2022/07/14 06:46:16;;;;;;;6.13;2.80;;;;;;;23.28;75.72;96536.94;5051103;28;20195;-79
2022/07/14 06:48:45;;;;;;;4.22;2.65;;;;;;;23.19;75.69;96530.53;5024944;28;20218;-80
2022/07/14 06:51:12;;;;;;;4.78;3.03;;;;;;;23.18;75.11;96526.13;5022783;28;20204;-80
2022/07/14 06:53:39;;;;;;;4.20;2.33;;;;;;;23.23;74.73;96518.56;5019184;28;20207;-80
2022/07/14 06:56:06;;;;;;;4.28;2.40;;;;;;;23.33;73.24;96510.09;5015503;28;20226;-79
2022/07/14 06:58:33;;;;;;;3.05;2.22;;;;;;;23.44;72.59;96507.94;5015446;28;20203;-80
2022/07/14 07:01:01;;;;;;;8.25;2.47;;;;;;;23.51;71.55;96507.56;5017723;28;20203;-80
2022/07/14 07:03:30;;;;;;;3.58;3.05;;;;;;;23.55;71.38;96498.38;5026558;28;20298;-80
2022/07/14 07:08:41;;;;;;;2.72;2.35;;;;;;;23.74;66.60;96490.75;5034191;28;20274;-80
2022/07/14 07:11:09;;;;;;;3.72;2.30;;;;;;;23.82;65.35;96480.91;5013801;28;20246;-80
2022/07/14 07:13:37;;;;;;;2.10;2.00;;;;;;;24.09;62.11;96472.53;5013429;28;20212;-80
2022/07/14 07:16:05;;;;;;;3.88;1.90;;;;;;;24.29;59.75;96479.53;5023209;28;20217;-80
2022/07/14 07:18:33;;;;;;;5.13;1.90;;;;;;;24.61;55.13;96475.66;5052537;28;20226;-80
2022/07/14 07:21:01;;;;;;;2.35;1.95;;;;;;;25.13;54.29;96481.44;5023355;28;20194;-80
2022/07/14 07:23:29;;;;;;;3.08;2.20;;;;;;;25.86;52.41;96471.53;5022810;28;20294;-80
2022/07/14 07:25:56;;;;;;;2.95;2.00;;;;;;;26.44;49.05;96476.56;5040631;28;20203;-80
2022/07/14 07:28:24;;;;;;;2.22;2.03;;;;;;;26.92;46.93;96476.25;5049535;28;20285;-80
2022/07/14 07:30:51;;;;;;;2.83;1.88;;;;;;;27.37;46.08;96471.00;5027297;28;20229;-80
2022/07/14 07:33:18;;;;;;;2.15;1.70;;;;;;;27.72;46.57;96466.06;5058786;28;20416;-80
2022/07/14 07:35:46;;;;;;;3.47;2.00;;;;;;;28.05;46.69;96466.13;5040045;28;20211;-80
2022/07/14 07:38:13;;;;;;;3.13;2.45;;;;;;;28.39;46.55;96462.25;5020355;28;20219;-80
2022/07/14 07:40:40;;;;;;;2.50;2.20;;;;;;;28.67;47.75;96462.44;5015747;28;20203;-80
2022/07/14 07:43:08;;;;;;;5.32;2.50;;;;;;;28.89;47.51;96453.72;5062825;28;20229;-80
2022/07/14 07:45:35;;;;;;;4.55;2.72;;;;;;;28.97;46.44;96457.53;5023514;28;20210;-80
2022/07/14 07:48:03;;;;;;;6.22;3.05;;;;;;;28.90;48.91;96460.09;5020044;28;20207;-80
2022/07/14 07:50:30;;;;;;;10.65;3.72;;;;;;;28.66;51.01;96457.25;5016698;28;20223;-80
2022/07/14 07:52:59;;;;;;;6.25;3.33;;;;;;;28.54;51.99;96464.38;5011916;28;20215;-80
2022/07/14 07:55:27;;;;;;;10.45;3.20;;;;;;;28.36;53.36;96454.59;5029238;28;20210;-80
2022/07/14 07:57:54;;;;;;;6.35;3.30;;;;;;;28.16;54.76;96469.31;5019931;28;20214;-80
2022/07/14 08:00:22;;;;;;;4.10;2.80;;;;;;;28.02;55.79;96457.66;5031745;28;20204;-80
2022/07/14 08:02:52;;;;;;;4.18;3.20;;;;;;;27.89;55.82;96478.19;5012501;28;20214;-80
2022/07/14 08:05:21;;;;;;;6.18;2.72;;;;;;;27.86;54.89;96474.13;5022607;28;20376;-80
2022/07/14 08:07:48;;;;;;;3.80;2.60;;;;;;;27.86;54.44;96469.38;5055716;28;20211;-80
2022/07/14 08:10:17;;;;;;;5.32;3.00;;;;;;;27.96;53.97;96470.13;5027540;28;20227;-80
2022/07/14 08:12:45;;;;;;;3.40;3.10;;;;;;;28.01;51.93;96467.13;5055871;28;20283;-80
2022/07/14 08:15:14;;;;;;;8.90;3.08;;;;;;;28.14;51.62;96477.16;5018092;28;20195;-80
2022/07/14 08:17:42;;;;;;;3.03;2.72;;;;;;;28.18;50.73;96473.38;5017999;28;20213;-80
2022/07/14 08:20:10;;;;;;;4.95;2.60;;;;;;;28.13;51.28;96473.56;5027597;28;20203;-80
2022/07/14 08:22:38;;;;;;;4.97;3.00;;;;;;;28.19;51.36;96471.41;5017379;28;20284;-80
2022/07/14 08:25:07;;;;;;;3.70;2.78;;;;;;;28.41;51.57;96471.03;5013178;28;20293;-80
2022/07/14 08:27:36;;;;;;;4.35;3.53;;;;;;;28.49;51.76;96472.94;5028132;28;20237;-80
2022/07/14 08:30:04;;;;;;;3.65;2.60;;;;;;;28.67;51.29;96462.44;5052811;28;20227;-80
2022/07/14 08:32:36;;;;;;;3.60;2.92;;;;;;;28.79;49.91;96467.25;5027519;28;20218;-80
2022/07/14 08:35:04;;;;;;;3.65;2.60;;;;;;;28.97;49.91;96472.25;5016984;28;20290;-80
2022/07/14 08:37:31;;;;;;;3.15;2.85;;;;;;;29.24;48.36;96461.63;5032232;28;20196;-80
2022/07/14 08:39:58;;;;;;;4.88;2.83;;;;;;;29.37;47.02;96468.00;5016720;28;20215;-81
2022/07/14 08:42:26;;;;;;;2.70;2.50;;;;;;;29.46;45.44;96465.91;5017346;28;20207;-80
2022/07/14 08:44:55;;;;;;;3.55;2.40;;;;;;;29.44;45.70;96462.66;5051155;28;20314;-80
2022/07/14 08:47:23;;;;;;;3.53;2.38;;;;;;;29.49;47.24;96468.81;5023227;28;20287;-80
2022/07/14 08:49:50;;;;;;;2.78;2.58;;;;;;;29.48;46.36;96458.03;5050647;28;20222;-81
2022/07/14 08:52:18;;;;;;;4.53;2.30;;;;;;;29.62;45.78;96458.47;5031996;28;20204;-80
2022/07/14 08:54:46;;;;;;;2.50;2.30;;;;;;;29.66;46.01;96459.41;5020592;28;20301;-80
2022/07/14 08:57:13;;;;;;;2.75;2.47;;;;;;;29.65;45.97;96464.16;5035122;28;20307;-81
2022/07/14 08:59:40;;;;;;;2.58;2.38;;;;;;;29.62;45.54;96455.69;5025158;28;20211;-80
2022/07/14 09:02:10;;;;;;;2.63;2.42;;;;;;;29.78;45.56;96461.34;5027777;28;20237;-81
2022/07/14 09:04:37;;;;;;;4.45;2.40;;;;;;;30.01;45.24;96449.38;5023031;28;20348;-80
2022/07/14 09:07:05;;;;;;;2.60;2.38;;;;;;;30.19;44.24;96449.09;5020928;28;20203;-81
2022/07/14 09:09:34;;;;;;;2.50;2.30;;;;;;;30.36;42.41;96455.16;5041172;28;20211;-80
2022/07/14 09:12:04;;;;;;;2.72;2.50;;;;;;;30.49;42.89;96453.13;5022363;28;20250;-80
2022/07/14 09:15:44;;;;;;;2.50;2.30;;;;;;;30.73;42.19;96444.66;5041285;28;20230;-81
2022/07/14 09:17:25;;;;;;;3.88;2.55;;;;;;;30.76;42.27;96443.13;5042676;28;20274;-80
2022/07/14 09:20:09;;;;;;;3.05;2.83;;;;;;;30.89;40.63;96438.25;5054708;28;20203;-81
2022/07/14 09:22:38;;;;;;;3.55;2.45;;;;;;;30.97;39.91;96440.06;5021148;28;20207;-80
2022/07/14 09:25:08;;;;;;;4.63;2.50;;;;;;;30.90;39.91;96431.53;5039331;28;20298;-80
2022/07/14 09:27:35;;;;;;;3.35;2.47;;;;;;;30.99;38.21;96437.72;5049833;28;20231;-81
2022/07/14 09:30:04;;;;;;;2.83;2.63;;;;;;;31.01;39.74;96441.78;5022052;28;20225;-80
2022/07/14 09:32:51;;;;;;;3.50;2.30;;;;;;;31.02;37.84;96428.66;5052040;28;20277;-80
2022/07/14 09:35:20;;;;;;;4.82;2.67;;;;;;;30.91;39.74;96424.78;5023240;28;20293;-80
2022/07/14 09:37:48;;;;;;;2.45;2.25;;;;;;;30.89;39.61;96432.69;5024456;28;20203;-80
2022/07/14 09:40:28;;;;;;;3.97;2.72;;;;;;;30.94;40.27;96426.88;5024744;28;20225;-80
2022/07/14 09:43:00;;;;;;;2.30;2.10;;;;;;;31.05;41.43;96427.94;5021704;28;20203;-81
2022/07/14 09:45:29;;;;;;;4.50;2.40;;;;;;;31.06;39.80;96437.91;5025206;28;20223;-80
2022/07/14 09:48:04;;;;;;;2.72;2.53;;;;;;;31.16;38.99;96429.84;5022053;28;20211;-80
2022/07/14 09:50:47;;;;;;;3.72;2.38;;;;;;;31.05;38.15;96425.16;5018093;28;20242;-80
2022/07/14 09:53:21;;;;;;;3.33;2.40;;;;;;;30.89;39.45;96427.13;5021524;28;20218;-81
2022/07/14 09:56:03;;;;;;;5.15;2.50;;;;;;;30.95;39.61;96426.50;5023070;28;20226;-80
2022/07/14 09:58:33;;;;;;;2.80;2.60;;;;;;;30.98;39.43;96422.16;5037183;28;20224;-80
2022/07/14 10:01:03;;;;;;;4.22;2.42;;;;;;;31.14;38.02;96412.66;5021389;28;20218;-80
2022/07/14 10:03:33;;;;;;;7.43;2.80;;;;;;;31.43;36.19;96414.16;5014152;28;20226;-80
2022/07/14 10:06:02;;;;;;;3.38;2.63;;;;;;;31.51;38.47;96420.69;5025465;28;20216;-80
2022/07/14 10:08:31;;;;;;;6.70;2.78;;;;;;;31.39;38.53;96413.25;5024153;28;20203;-80
2022/07/14 10:11:00;;;;;;;3.58;2.17;;;;;;;31.37;37.48;96415.59;5016286;28;20269;-80
2022/07/14 10:13:28;;;;;;;3.85;2.42;;;;;;;31.34;36.43;96416.31;5018411;28;20213;-80
2022/07/14 10:15:56;;;;;;;6.15;2.35;;;;;;;31.39;36.49;96410.44;5020906;28;20226;-81
2022/07/14 10:18:25;;;;;;;2.83;2.63;;;;;;;31.44;36.99;96401.81;5021654;28;20216;-80
2022/07/14 10:20:55;;;;;;;7.00;2.80;;;;;;;31.54;36.04;96401.25;5021566;28;20257;-80
2022/07/14 10:23:23;;;;;;;3.53;2.58;;;;;;;31.59;36.26;96400.97;5053552;28;20230;-80
2022/07/14 10:25:52;;;;;;;3.85;2.50;;;;;;;31.65;36.33;96403.47;5032724;28;20262;-80
2022/07/14 10:28:21;;;;;;;8.88;2.83;;;;;;;31.66;36.97;96393.94;5021994;28;20238;-80
2022/07/14 10:31:00;;;;;;;4.50;2.72;;;;;;;31.74;37.78;96398.50;5021281;28;20242;-80
2022/07/14 10:33:35;;;;;;;2.83;2.50;;;;;;;31.93;37.52;96384.56;5031212;28;20211;-80
2022/07/14 10:36:15;;;;;;;2.70;2.50;;;;;;;31.90;37.06;96371.34;5026797;28;20194;-80
2022/07/14 10:39:01;;;;;;;3.80;2.30;;;;;;;32.04;36.91;96368.03;5026672;28;20215;-80
2022/07/14 10:41:51;;;;;;;2.80;2.53;;;;;;;32.06;35.52;96374.06;5055008;28;20210;-80
2022/07/14 10:44:21;;;;;;;3.97;2.35;;;;;;;32.22;35.50;96360.84;5057649;28;20206;-80
2022/07/14 10:46:51;;;;;;;2.83;2.63;;;;;;;32.41;36.19;96366.38;5022245;28;20262;-80
2022/07/14 10:49:19;;;;;;;3.60;2.50;;;;;;;32.36;35.48;96360.28;5016946;28;20243;-80
2022/07/14 10:51:49;;;;;;;3.75;2.70;;;;;;;32.39;36.28;96370.75;5028717;28;20268;-80
2022/07/14 10:54:24;;;;;;;2.72;2.47;;;;;;;32.30;36.05;96379.34;5050187;28;20211;-80
2022/07/14 10:57:07;;;;;;;3.08;2.85;;;;;;;32.23;36.87;96371.66;5027640;28;20226;-80
2022/07/14 10:59:38;;;;;;;2.65;2.30;;;;;;;32.13;35.87;96371.41;5025021;28;20274;-81
2022/07/14 11:02:28;;;;;;;3.25;2.55;;;;;;;31.99;36.94;96369.13;5016698;28;20200;-80
2022/07/14 11:05:18;;;;;;;2.90;2.40;;;;;;;32.11;37.54;96374.56;5033796;28;20302;-80
2022/07/14 11:07:50;;;;;;;3.28;2.97;;;;;;;32.17;37.19;96372.31;5030536;28;20277;-80
2022/07/14 11:11:08;;;;;;;8.02;3.30;;;;;;;32.16;36.29;96370.69;5031933;28;20215;-80
2022/07/14 11:13:36;;;;;;;6.10;3.17;;;;;;;32.14;37.44;96359.06;5035166;28;20207;-81
2022/07/14 11:16:04;;;;;;;4.72;3.10;;;;;;;32.27;37.28;96360.53;5017063;28;20273;-80
2022/07/14 11:18:41;;;;;;;8.93;2.80;;;;;;;32.41;37.25;96357.22;5058678;28;20306;-80
2022/07/14 11:21:16;;;;;;;3.45;2.97;;;;;;;32.43;37.19;96354.84;5029908;28;20211;-80
2022/07/14 11:23:55;;;;;;;3.28;2.97;;;;;;;32.54;36.61;96353.84;5038505;28;20222;-80
2022/07/14 11:26:36;;;;;;;5.45;2.95;;;;;;;32.72;36.83;96345.81;5019909;28;20285;-80
2022/07/14 11:29:06;;;;;;;5.13;3.10;;;;;;;32.87;37.04;96352.44;5043695;28;20206;-81
2022/07/14 11:31:45;;;;;;;3.40;3.10;;;;;;;32.85;36.28;96340.81;5027107;28;20234;-80
2022/07/14 11:37:08;;;;;;;4.15;3.20;;;;;;;33.00;36.18;96345.47;5026643;28;20211;-80
2022/07/14 11:39:37;;;;;;;3.03;2.83;;;;;;;33.05;36.44;96343.16;5026545;28;20199;-80
2022/07/14 11:42:07;;;;;;;5.20;3.20;;;;;;;32.95;35.98;96341.00;5023345;28;20219;-81
2022/07/14 11:44:49;;;;;;;3.10;2.90;;;;;;;32.93;37.09;96346.16;5013131;28;20532;-80
2022/07/14 11:47:18;;;;;;;4.28;3.45;;;;;;;33.03;35.96;96353.91;5030517;28;20211;-81
2022/07/14 11:49:59;;;;;;;3.78;3.17;;;;;;;33.15;36.20;96341.72;5025883;28;20199;-81
2022/07/14 11:52:30;;;;;;;3.83;3.10;;;;;;;33.29;36.14;96341.13;5060500;28;20226;-80
2022/07/14 11:54:59;;;;;;;4.65;3.30;;;;;;;33.50;35.23;96344.25;5017604;28;20244;-81
2022/07/14 11:57:27;;;;;;;4.03;3.17;;;;;;;33.58;35.05;96336.75;5021834;28;20273;-81
2022/07/14 12:00:01;;;;;;;5.68;3.38;;;;;;;33.75;35.41;96330.63;5027675;28;20199;-81